Time;durP1;ratioP1;P1;durP2;ratioP2;P2;SDS_P1;SDS_P2;PMS_P1;PMS_P2;Temp;Humidity;BMP_temperature;BMP_pressure;BME280_temperature;BME280_humidity;BME280_pressure;Samples;Min_cycle;Max_cycle;Signal;HPM_P1;HPM_P2
2021/07/30 00:01:45;;;;;;;;;3.50;3.00;;;;;27.43;39.52;100884.47;4944686;28;45299;-71
2021/07/30 00:04:10;;;;;;;;;4.50;3.25;;;;;27.51;39.56;100886.88;4949171;28;47241;-71
2021/07/30 00:06:35;;;;;;;;;4.00;4.00;;;;;27.44;39.59;100880.75;4956032;28;45298;-71
2021/07/30 00:09:01;;;;;;;;;4.00;3.00;;;;;27.41;39.70;100874.00;4940559;28;45452;-71
2021/07/30 00:11:26;;;;;;;;;8.00;5.00;;;;;27.49;39.43;100879.06;4942304;28;45294;-71
2021/07/30 00:13:51;;;;;;;;;3.00;3.00;;;;;27.49;39.20;100879.06;4944931;28;45437;-71
2021/07/30 00:16:16;;;;;;;;;3.50;3.50;;;;;27.49;39.41;100881.75;4944635;28;45423;-71
2021/07/30 00:18:42;;;;;;;;;4.00;4.00;;;;;27.49;39.50;100884.41;4944890;28;45298;-70
2021/07/30 00:21:07;;;;;;;;;3.00;3.00;;;;;27.41;39.74;100868.66;4940693;28;45517;-71
2021/07/30 00:23:33;;;;;;;;;3.00;3.00;;;;;27.45;39.20;100871.72;4941376;28;45196;-70
2021/07/30 00:26:02;;;;;;;;;4.00;2.75;;;;;27.48;39.17;100877.41;4944887;28;45212;-71
2021/07/30 00:28:27;;;;;;;;;4.75;3.00;;;;;27.36;39.55;100855.94;4944804;28;45468;-71
2021/07/30 00:30:53;;;;;;;;;3.67;3.67;;;;;27.44;39.51;100865.53;4946336;28;45385;-71
2021/07/30 00:33:18;;;;;;;;;3.75;3.75;;;;;27.38;39.40;100858.38;4955768;28;47025;-71
2021/07/30 00:35:43;;;;;;;;;3.75;3.75;;;;;27.40;39.76;100857.13;4940117;28;45370;-71
2021/07/30 00:38:09;;;;;;;;;3.00;3.00;;;;;27.47;39.40;100864.28;4944372;28;45329;-71
2021/07/30 00:40:35;;;;;;;;;3.00;3.00;;;;;27.40;39.58;100842.97;4944622;28;45444;-71
2021/07/30 00:43:00;;;;;;;;;4.00;4.00;;;;;27.47;39.67;100857.09;4947308;28;45913;-71
2021/07/30 00:45:26;;;;;;;;;3.00;3.00;;;;;27.47;39.22;100854.44;4955282;28;45498;-71
2021/07/30 00:47:51;;;;;;;;;3.00;3.00;;;;;27.40;39.33;100841.09;4939945;28;45294;-71
2021/07/30 00:50:17;;;;;;;;;3.75;3.25;;;;;27.47;39.31;100851.75;4943233;28;45389;-71
2021/07/30 00:52:43;;;;;;;;;3.75;3.75;;;;;27.48;39.15;100858.72;4944379;28;45901;-71
2021/07/30 00:55:10;;;;;;;;;3.00;3.00;;;;;27.46;39.67;100852.78;4944423;28;45561;-71
2021/07/30 00:57:36;;;;;;;;;4.25;4.25;;;;;27.48;39.52;100849.91;4944164;28;45500;-71
2021/07/30 01:00:03;;;;;;;;;3.00;3.00;;;;;27.46;39.62;100844.78;4940220;28;45282;-71
2021/07/30 01:02:29;;;;;;;;;3.00;3.00;;;;;27.48;39.57;100848.03;4944556;28;45356;-71
2021/07/30 01:04:54;;;;;;;;;4.00;4.00;;;;;27.48;39.51;100841.91;4947588;28;45340;-71
2021/07/30 01:07:20;;;;;;;;;2.75;2.75;;;;;27.39;39.28;100838.66;4947818;28;45307;-71
2021/07/30 01:09:45;;;;;;;;;4.50;3.00;;;;;27.42;39.82;100832.06;4948473;28;45496;-71
2021/07/30 01:12:12;;;;;;;;;4.50;4.50;;;;;27.44;39.76;100838.00;4958514;28;45940;-71
2021/07/30 01:14:37;;;;;;;;;3.75;3.75;;;;;27.48;39.76;100845.34;4943247;28;45350;-71
2021/07/30 01:17:03;;;;;;;;;3.00;3.00;;;;;27.35;39.69;100830.25;4958633;28;45257;-71
2021/07/30 01:19:28;;;;;;;;;4.00;3.00;;;;;27.47;39.79;100841.06;4951950;28;45380;-71
2021/07/30 01:21:54;;;;;;;;;2.75;2.50;;;;;27.47;39.41;100837.56;4949249;28;45471;-71
2021/07/30 01:24:21;;;;;;;;;3.33;3.33;;;;;27.47;39.26;100848.25;4958517;28;45464;-71
2021/07/30 01:26:48;;;;;;;;;4.75;4.75;;;;;27.45;39.80;100842.31;4943219;28;45446;-71
2021/07/30 01:29:13;;;;;;;;;2.00;2.00;;;;;27.45;39.77;100836.97;4945956;28;45733;-71
2021/07/30 01:31:39;;;;;;;;;4.00;3.25;;;;;27.47;39.74;100842.91;4946990;28;46042;-71
2021/07/30 01:34:04;;;;;;;;;3.25;3.00;;;;;27.46;39.29;100843.94;4947405;28;45377;-71
2021/07/30 01:36:29;;;;;;;;;3.00;3.00;;;;;27.46;39.30;100842.09;4946091;28;45406;-71
2021/07/30 01:38:55;;;;;;;;;3.25;3.25;;;;;27.43;40.03;100834.50;4942638;28;45401;-71
2021/07/30 01:41:20;;;;;;;;;4.50;4.50;;;;;27.46;39.87;100836.75;4945038;28;45429;-71
2021/07/30 01:43:45;;;;;;;;;3.25;3.25;;;;;27.43;39.75;100820.34;4946686;28;45290;-71
2021/07/30 01:46:11;;;;;;;;;2.25;2.25;;;;;27.47;39.50;100821.53;4947176;28;45283;-71
2021/07/30 01:48:37;;;;;;;;;2.25;2.25;;;;;27.44;39.57;100820.13;4946788;28;45410;-71
2021/07/30 01:51:05;;;;;;;;;4.75;3.00;;;;;27.45;39.02;100828.97;4957855;28;47116;-71
2021/07/30 01:53:30;;;;;;;;;3.00;3.00;;;;;27.42;39.82;100818.72;4943810;28;45465;-71
2021/07/30 01:55:56;;;;;;;;;4.25;3.00;;;;;27.42;39.21;100816.88;4947005;28;45471;-71
2021/07/30 01:58:21;;;;;;;;;3.00;2.50;;;;;27.46;39.73;100823.41;4946491;28;45470;-71
2021/07/30 02:00:47;;;;;;;;;3.25;3.25;;;;;27.45;39.64;100826.28;4947675;28;46158;-71
2021/07/30 02:03:12;;;;;;;;;3.00;3.00;;;;;27.45;39.50;100823.63;4957887;28;45487;-71
2021/07/30 02:05:39;;;;;;;;;3.50;3.00;;;;;27.44;39.28;100828.13;4942641;28;45281;-71
2021/07/30 02:08:05;;;;;;;;;3.00;3.00;;;;;27.46;39.72;100827.91;4946766;28;45385;-71
2021/07/30 02:10:31;;;;;;;;;3.75;3.75;;;;;27.39;39.76;100820.78;4946011;28;46211;-71
2021/07/30 02:15:40;;;;;;;;;4.00;4.00;;;;;27.40;39.53;100818.94;4957634;28;45465;-71
2021/07/30 02:18:05;;;;;;;;;2.50;2.00;;;;;27.45;39.24;100815.59;4958001;28;45432;-71
2021/07/30 02:20:30;;;;;;;;;2.25;2.25;;;;;27.36;39.16;100804.38;4942923;28;49858;-71
2021/07/30 02:22:56;;;;;;;;;5.50;4.50;;;;;27.44;39.85;100813.97;4946371;28;45284;-71
2021/07/30 02:25:21;;;;;;;;;2.50;2.50;;;;;27.44;39.28;100820.13;4946619;28;45445;-71
2021/07/30 02:27:46;;;;;;;;;4.00;4.00;;;;;27.45;39.81;100818.28;4946982;28;45556;-71
2021/07/30 02:30:12;;;;;;;;;3.25;3.25;;;;;27.41;39.41;100809.88;4957442;28;46046;-72
2021/07/30 02:32:37;;;;;;;;;3.00;2.75;;;;;27.45;39.30;100812.94;4942306;28;45278;-71
2021/07/30 02:35:03;;;;;;;;;4.00;4.00;;;;;27.34;39.67;100787.75;4946509;28;45493;-71
2021/07/30 02:37:28;;;;;;;;;4.00;4.00;;;;;27.45;39.50;100815.59;4946377;28;45514;-71
2021/07/30 02:39:53;;;;;;;;;1.75;1.75;;;;;27.43;39.57;100810.47;4948005;28;46120;-71
2021/07/30 02:42:19;;;;;;;;;3.00;3.00;;;;;27.37;39.67;100796.16;4956957;28;45233;-70
2021/07/30 02:44:45;;;;;;;;;3.50;3.50;;;;;27.35;39.62;100798.19;4942002;28;45316;-71
2021/07/30 02:47:10;;;;;;;;;5.75;3.50;;;;;27.35;39.35;100786.72;4960729;28;45414;-71
2021/07/30 02:49:35;;;;;;;;;3.25;3.00;;;;;27.42;39.38;100795.50;4949507;28;46386;-71
2021/07/30 02:52:00;;;;;;;;;4.00;4.00;;;;;27.38;39.36;100787.09;4946084;28;45807;-72
2021/07/30 02:54:26;;;;;;;;;6.00;3.75;;;;;27.44;39.29;100797.94;4944475;28;45424;-71
2021/07/30 02:56:51;;;;;;;;;3.75;3.75;;;;;27.43;39.30;100797.09;4941301;28;45393;-71
2021/07/30 02:59:16;;;;;;;;;2.00;2.00;;;;;27.39;39.60;100793.25;4944448;28;46220;-71
2021/07/30 03:01:42;;;;;;;;;4.25;3.00;;;;;27.34;39.59;100785.91;4945784;28;45666;-71
2021/07/30 03:04:07;;;;;;;;;3.75;2.00;;;;;27.39;39.47;100791.41;4946193;28;45445;-71
2021/07/30 03:06:32;;;;;;;;;4.00;3.50;;;;;27.42;39.84;100784.81;4944947;28;45590;-70
2021/07/30 03:08:57;;;;;;;;;5.50;2.75;;;;;27.40;39.03;100771.66;4956838;28;46483;-71
2021/07/30 03:11:23;;;;;;;;;3.25;2.75;;;;;27.37;39.53;100771.28;4943224;28;45459;-71
2021/07/30 03:13:48;;;;;;;;;5.00;4.00;;;;;27.40;39.17;100777.00;4945880;28;45323;-71
2021/07/30 03:16:14;;;;;;;;;2.50;2.50;;;;;27.40;39.73;100762.84;4945804;28;45432;-71
2021/07/30 03:18:40;;;;;;;;;3.00;2.75;;;;;27.42;39.46;100767.94;4945799;28;46132;-71
2021/07/30 03:21:06;;;;;;;;;3.25;3.25;;;;;27.42;39.84;100758.09;4941204;28;45588;-71
2021/07/30 03:23:31;;;;;;;;;2.00;2.00;;;;;27.42;39.64;100752.75;4941431;28;45311;-71
2021/07/30 03:25:56;;;;;;;;;2.75;2.50;;;;;27.33;39.14;100740.69;4945440;28;45430;-71
2021/07/30 03:28:22;;;;;;;;;3.00;2.75;;;;;27.34;39.33;100740.47;4945376;28;46284;-71
2021/07/30 03:30:48;;;;;;;;;3.00;3.00;;;;;27.40;39.74;100747.59;4945530;28;45318;-71
2021/07/30 03:33:13;;;;;;;;;2.00;2.00;;;;;27.41;39.83;100748.44;4942361;28;45494;-71
2021/07/30 03:35:39;;;;;;;;;4.00;4.00;;;;;27.38;39.75;100736.31;4941304;28;45374;-71
2021/07/30 03:38:05;;;;;;;;;5.50;3.00;;;;;27.25;39.78;100707.88;4944909;28;46251;-71
2021/07/30 03:40:30;;;;;;;;;2.50;2.50;;;;;27.43;39.24;100730.31;4944859;28;45573;-71
2021/07/30 03:42:56;;;;;;;;;3.00;2.00;;;;;27.43;39.17;100724.19;4945547;28;45353;-71
2021/07/30 03:45:21;;;;;;;;;3.00;3.00;;;;;27.38;39.03;100719.47;4943127;28;45461;-71
2021/07/30 03:47:47;;;;;;;;;4.00;4.00;;;;;27.43;39.53;100721.50;4956396;28;45507;-71
2021/07/30 03:50:12;;;;;;;;;2.00;2.00;;;;;27.37;39.83;100713.34;4944413;28;45519;-71
2021/07/30 03:52:38;;;;;;;;;2.00;2.00;;;;;27.41;39.11;100719.03;4943987;28;45429;-71
2021/07/30 03:55:03;;;;;;;;;3.00;3.00;;;;;27.38;39.43;100709.59;4944952;28;45426;-71
2021/07/30 03:57:30;;;;;;;;;2.50;2.50;;;;;27.42;39.32;100709.19;4943923;28;45942;-71
2021/07/30 03:59:56;;;;;;;;;3.00;3.00;;;;;27.40;39.14;100707.53;4956129;28;45472;-71
2021/07/30 04:02:21;;;;;;;;;5.00;3.25;;;;;27.37;39.41;100702.66;4943236;28;45303;-71
2021/07/30 04:04:46;;;;;;;;;2.67;2.67;;;;;27.39;39.87;100705.91;4945251;28;45457;-71
2021/07/30 04:07:12;;;;;;;;;3.50;3.50;;;;;27.36;39.38;100702.84;4944977;28;47182;-71
2021/07/30 04:09:37;;;;;;;;;3.00;2.25;;;;;27.38;39.70;100714.94;4944329;28;45227;-71
2021/07/30 04:12:02;;;;;;;;;3.25;3.25;;;;;27.43;39.44;100729.53;4940551;28;45253;-71
2021/07/30 04:14:28;;;;;;;;;4.00;3.25;;;;;27.42;39.37;100712.66;4942251;28;45414;-71
2021/07/30 04:16:53;;;;;;;;;3.25;2.50;;;;;27.41;39.44;100713.69;4944796;28;47368;-71
2021/07/30 04:19:18;;;;;;;;;3.00;3.00;;;;;27.42;39.34;100703.84;4944980;28;45448;-71
2021/07/30 04:21:44;;;;;;;;;2.67;2.67;;;;;27.41;39.70;100697.66;4944822;28;45388;-71
2021/07/30 04:24:09;;;;;;;;;3.00;3.00;;;;;27.40;39.24;100701.41;4940678;28;45273;-71
2021/07/30 04:26:35;;;;;;;;;3.00;3.00;;;;;27.40;39.68;100696.06;4952026;28;47257;-71
2021/07/30 04:29:00;;;;;;;;;3.00;3.00;;;;;27.40;39.69;100691.50;4955451;28;45366;-71
2021/07/30 04:31:25;;;;;;;;;3.00;3.00;;;;;27.41;39.42;100681.63;4949776;28;45705;-71
2021/07/30 04:33:51;;;;;;;;;4.25;4.25;;;;;27.39;39.63;100679.19;4945385;28;45420;-71
2021/07/30 04:36:17;;;;;;;;;5.25;4.00;;;;;27.40;39.10;100699.50;4944854;28;45978;-71
2021/07/30 04:38:43;;;;;;;;;3.00;2.00;;;;;27.40;39.55;100691.50;4959113;28;45344;-71
2021/07/30 04:41:08;;;;;;;;;3.00;3.00;;;;;27.34;39.35;100687.06;4947700;28;45341;-71
2021/07/30 04:43:35;;;;;;;;;3.00;3.00;;;;;27.38;39.76;100674.06;4947968;28;45471;-71
2021/07/30 04:46:00;;;;;;;;;2.00;2.00;;;;;27.40;39.39;100688.84;4948125;28;45485;-71
2021/07/30 04:48:26;;;;;;;;;2.00;2.00;;;;;27.31;39.72;100679.47;4946070;28;45445;-71
2021/07/30 04:50:51;;;;;;;;;3.00;3.00;;;;;27.39;39.82;100684.53;4943543;28;45368;-71
2021/07/30 04:53:17;;;;;;;;;4.00;4.00;;;;;27.39;39.12;100691.72;4946165;28;45353;-71
2021/07/30 04:55:42;;;;;;;;;4.33;3.33;;;;;27.40;39.23;100686.16;4947395;28;55577;-71
2021/07/30 04:58:08;;;;;;;;;3.75;3.75;;;;;27.35;39.73;100669.19;4947972;28;45341;-71
2021/07/30 05:00:33;;;;;;;;;2.00;2.00;;;;;27.40;39.53;100688.84;4947041;28;45548;-71
2021/07/30 05:02:58;;;;;;;;;2.00;2.00;;;;;27.41;39.60;100695.00;4943383;28;45825;-71
2021/07/30 05:05:24;;;;;;;;;2.00;2.00;;;;;27.32;39.07;100681.13;4959293;28;46043;-72
2021/07/30 05:07:49;;;;;;;;;3.00;3.00;;;;;27.39;39.78;100691.72;4949138;28;45345;-71
2021/07/30 05:10:14;;;;;;;;;3.50;3.00;;;;;27.34;39.86;100686.25;4947718;28;45539;-71
2021/07/30 05:12:40;;;;;;;;;2.50;2.50;;;;;27.39;39.69;100692.56;4947706;28;45456;-71
2021/07/30 05:15:06;;;;;;;;;1.75;1.75;;;;;27.40;39.20;100688.03;4943011;28;47500;-70
2021/07/30 05:17:31;;;;;;;;;3.00;3.00;;;;;27.40;39.37;100680.81;4959029;28;45511;-71
2021/07/30 05:19:56;;;;;;;;;3.00;3.00;;;;;27.36;39.69;100678.81;4963158;28;45614;-71
2021/07/30 05:22:22;;;;;;;;;2.50;2.50;;;;;27.39;39.20;100692.56;4947146;28;45593;-71
2021/07/30 05:24:47;;;;;;;;;2.67;2.67;;;;;27.35;39.61;100685.22;4947219;28;46167;-71
2021/07/30 05:27:14;;;;;;;;;2.75;2.00;;;;;27.31;39.29;100676.00;4943936;28;45437;-71
2021/07/30 05:29:39;;;;;;;;;3.00;3.00;;;;;27.35;39.51;100672.66;4943146;28;45311;-70
2021/07/30 05:32:07;;;;;;;;;3.00;3.00;;;;;27.37;39.61;100688.47;4947339;28;45659;-71
2021/07/30 05:34:32;;;;;;;;;2.00;2.00;;;;;27.40;39.04;100672.00;4946891;28;47136;-71
2021/07/30 05:36:58;;;;;;;;;3.00;3.00;;;;;27.39;39.47;100683.72;4946755;28;45373;-71
2021/07/30 05:39:23;;;;;;;;;3.00;3.00;;;;;27.34;39.69;100665.69;4945128;28;45231;-71
2021/07/30 05:41:48;;;;;;;;;3.25;3.25;;;;;27.38;39.85;100677.56;4942766;28;45204;-71
2021/07/30 05:44:14;;;;;;;;;3.00;3.00;;;;;27.38;39.83;100677.56;4958512;28;48949;-71
2021/07/30 05:46:40;;;;;;;;;3.67;3.00;;;;;27.36;39.01;100668.13;4949333;28;45428;-71
2021/07/30 05:49:06;;;;;;;;;2.67;2.67;;;;;27.31;39.24;100659.97;4947075;28;45306;-71
2021/07/30 05:51:33;;;;;;;;;4.00;4.00;;;;;27.31;39.76;100659.97;4944512;28;45485;-71
2021/07/30 05:53:59;;;;;;;;;2.75;2.25;;;;;27.38;39.15;100666.88;4957946;28;46351;-71
2021/07/30 05:56:24;;;;;;;;;3.00;3.00;;;;;27.31;39.39;100658.13;4958409;28;45460;-71
2021/07/30 05:58:49;;;;;;;;;1.00;1.00;;;;;27.33;39.00;100649.88;4948729;28;45415;-71
2021/07/30 06:01:14;;;;;;;;;3.50;3.00;;;;;27.37;39.33;100667.09;4946955;28;46111;-71
2021/07/30 06:03:40;;;;;;;;;3.75;3.75;;;;;27.34;39.58;100651.50;4946477;28;45448;-71
2021/07/30 06:06:06;;;;;;;;;3.33;2.33;;;;;27.34;39.83;100638.16;4942434;28;45474;-71
2021/07/30 06:08:32;;;;;;;;;2.00;2.00;;;;;27.37;39.34;100648.41;4958618;28;45388;-71
2021/07/30 06:10:57;;;;;;;;;4.00;4.00;;;;;27.38;39.63;100650.03;4946064;28;45517;-71
2021/07/30 06:13:23;;;;;;;;;2.25;2.25;;;;;27.24;39.05;100646.69;4946557;28;45574;-73
2021/07/30 06:15:48;;;;;;;;;2.00;2.00;;;;;27.29;39.43;100653.00;4946644;28;45306;-73
2021/07/30 06:18:14;;;;;;;;;4.25;4.00;;;;;27.38;39.68;100663.38;4943049;28;45496;-73
2021/07/30 06:20:39;;;;;;;;;3.25;2.25;;;;;27.31;39.36;100639.41;4942093;28;45306;-73
2021/07/30 06:23:04;;;;;;;;;2.75;2.75;;;;;27.35;39.69;100643.25;4957595;28;47271;-73
2021/07/30 06:25:30;;;;;;;;;3.00;1.00;;;;;27.38;39.05;100645.50;4950768;28;45665;-76
2021/07/30 06:27:55;;;;;;;;;3.00;3.00;;;;;27.38;39.34;100650.03;4946697;28;45387;-71
2021/07/30 06:30:21;;;;;;;;;1.00;1.00;;;;;27.39;39.39;100641.81;4941439;28;45326;-71
2021/07/30 06:32:46;;;;;;;;;2.00;2.00;;;;;27.40;39.64;100645.28;4954891;28;45598;-71
2021/07/30 06:35:14;;;;;;;;;1.25;1.25;;;;;27.40;39.80;100640.75;4956498;28;45403;-72
2021/07/30 06:37:42;;;;;;;;;4.00;4.00;;;;;27.31;39.65;100627.91;4956193;28;45424;-72
2021/07/30 06:40:08;;;;;;;;;1.75;1.75;;;;;27.43;39.58;100642.16;4953369;28;45811;-72
2021/07/30 06:42:35;;;;;;;;;5.00;3.25;;;;;27.43;39.68;100634.13;4945206;28;46965;-72
2021/07/30 06:45:01;;;;;;;;;2.50;2.00;;;;;27.44;40.04;100640.31;4952408;28;45483;-72
2021/07/30 06:47:26;;;;;;;;;3.25;3.25;;;;;27.44;39.89;100641.13;4952000;28;45423;-71
2021/07/30 06:49:52;;;;;;;;;3.00;3.00;;;;;27.45;39.92;100639.28;4951750;28;45643;-72
2021/07/30 06:52:17;;;;;;;;;2.00;2.00;;;;;27.44;40.31;100638.47;4950555;28;45979;-71
2021/07/30 06:54:43;;;;;;;;;2.00;2.00;;;;;27.43;39.95;100626.13;4949758;28;45508;-71
2021/07/30 06:57:09;;;;;;;;;2.50;2.00;;;;;27.45;39.97;100639.28;4944522;28;45594;-72
2021/07/30 06:59:34;;;;;;;;;4.25;3.00;;;;;27.38;39.84;100624.13;4952995;28;45331;-74
2021/07/30 07:02:03;;;;;;;;;4.50;2.00;;;;;27.45;39.65;100632.09;4954701;28;45488;-72
2021/07/30 07:04:30;;;;;;;;;4.50;3.25;;;;;27.38;39.70;100621.47;4950356;28;45547;-72
2021/07/30 07:06:56;;;;;;;;;2.25;2.25;;;;;27.46;39.80;100628.34;4953460;28;45400;-72
2021/07/30 07:09:21;;;;;;;;;4.00;4.00;;;;;27.39;40.37;100616.94;4943261;28;45398;-71
2021/07/30 07:11:46;;;;;;;;;4.25;3.50;;;;;27.43;40.04;100620.78;4955702;28;46033;-73
2021/07/30 07:14:13;;;;;;;;;2.75;2.75;;;;;27.48;40.28;100634.28;4944499;28;45484;-74
2021/07/30 07:16:40;;;;;;;;;2.00;2.00;;;;;27.49;39.97;100633.25;4944988;28;45569;-73
2021/07/30 07:19:09;;;;;;;;;2.50;2.50;;;;;27.48;40.52;100625.47;4945678;28;45478;-73
2021/07/30 07:21:34;;;;;;;;;2.75;2.00;;;;;27.49;40.06;100629.78;4952820;28;46067;-73
2021/07/30 07:24:01;;;;;;;;;2.00;2.00;;;;;27.49;40.35;100625.25;4940548;28;45560;-73
2021/07/30 07:26:26;;;;;;;;;2.00;2.00;;;;;27.46;39.94;100620.34;4941729;28;45641;-73
2021/07/30 07:28:52;;;;;;;;;4.75;3.00;;;;;27.50;39.98;100629.56;4945097;28;45401;-72
2021/07/30 07:31:17;;;;;;;;;2.25;2.25;;;;;27.49;40.18;100625.25;4944670;28;46554;-72
2021/07/30 07:33:42;;;;;;;;;1.67;1.67;;;;;27.49;40.30;100619.09;4945108;28;45621;-72
2021/07/30 07:36:07;;;;;;;;;3.00;3.00;;;;;27.48;40.04;100620.13;4940818;28;45389;-72
2021/07/30 07:38:33;;;;;;;;;2.25;2.25;;;;;27.40;40.27;100599.88;4941620;28;45628;-73
2021/07/30 07:41:00;;;;;;;;;3.00;3.00;;;;;27.47;40.31;100613.16;4954787;28;46301;-72
2021/07/30 07:43:26;;;;;;;;;5.25;3.50;;;;;27.50;40.49;100613.53;4949824;28;45542;-73
2021/07/30 07:45:51;;;;;;;;;3.00;2.00;;;;;27.43;40.33;100609.31;4944487;28;45319;-72
2021/07/30 07:48:17;;;;;;;;;3.00;3.00;;;;;27.50;39.92;100620.72;4941781;28;45399;-73
2021/07/30 07:50:42;;;;;;;;;2.00;2.00;;;;;27.51;40.08;100617.00;4939833;28;46911;-72
2021/07/30 07:53:15;;;;;;;;;2.50;2.50;;;;;27.50;40.01;100618.88;4956006;28;45472;-72
2021/07/30 07:55:40;;;;;;;;;4.50;4.50;;;;;27.49;39.92;100611.88;4947749;28;45310;-74
2021/07/30 07:58:06;;;;;;;;;3.75;3.75;;;;;27.48;40.28;100612.13;4943608;28;45346;-73
2021/07/30 08:00:31;;;;;;;;;3.25;2.75;;;;;27.44;40.17;100608.25;4942827;28;46233;-73
2021/07/30 08:02:57;;;;;;;;;2.00;2.00;;;;;27.43;39.93;100620.00;4940210;28;45503;-73
2021/07/30 08:05:22;;;;;;;;;2.50;2.50;;;;;27.41;40.76;100636.22;4942635;28;46684;-73
2021/07/30 08:07:47;;;;;;;;;2.00;2.00;;;;;27.49;40.53;100646.63;4952609;28;45524;-73
2021/07/30 08:10:13;;;;;;;;;2.00;2.00;;;;;27.37;40.07;100635.03;4951069;28;45282;-74
2021/07/30 08:12:39;;;;;;;;;2.00;2.00;;;;;27.39;40.40;100647.16;4944755;28;45183;-73
2021/07/30 08:15:05;;;;;;;;;4.67;2.33;;;;;27.49;40.58;100665.31;4939915;28;45176;-73
2021/07/30 08:17:30;;;;;;;;;2.00;2.00;;;;;27.37;40.48;100649.22;4942000;28;45378;-73
2021/07/30 08:19:55;;;;;;;;;3.25;1.25;;;;;27.48;40.44;100671.69;4954450;28;45948;-73
2021/07/30 08:22:21;;;;;;;;;2.00;2.00;;;;;27.49;40.44;100677.88;4950325;28;45472;-73
2021/07/30 08:24:46;;;;;;;;;3.00;3.00;;;;;27.42;40.18;100674.44;4945068;28;45467;-73
2021/07/30 08:27:14;;;;;;;;;2.00;2.00;;;;;27.48;40.44;100674.38;4940906;28;45477;-74
2021/07/30 08:29:41;;;;;;;;;2.25;2.25;;;;;27.41;40.01;100670.94;4955598;28;46423;-73
2021/07/30 08:32:08;;;;;;;;;3.00;3.00;;;;;27.49;40.28;100672.50;4944059;28;45340;-73
2021/07/30 08:34:35;;;;;;;;;3.00;2.25;;;;;27.28;39.94;100653.22;4944585;28;45547;-73
2021/07/30 08:37:00;;;;;;;;;3.50;2.50;;;;;27.36;39.91;100670.81;4944602;28;45507;-73
2021/07/30 08:39:25;;;;;;;;;2.00;2.00;;;;;27.51;40.17;100691.81;4942473;28;46467;-73
2021/07/30 08:41:58;;;;;;;;;1.33;1.33;;;;;27.51;40.68;100673.94;4947133;28;45842;-73
2021/07/30 08:44:23;;;;;;;;;3.00;3.00;;;;;27.52;40.09;100694.28;4940485;28;45357;-74
2021/07/30 08:46:49;;;;;;;;;2.00;2.00;;;;;27.43;40.18;100678.75;4943802;28;45214;-74
2021/07/30 08:49:14;;;;;;;;;3.50;3.50;;;;;27.52;40.16;100685.44;4944333;28;45477;-73
2021/07/30 08:51:43;;;;;;;;;3.00;3.00;;;;;27.55;40.16;100694.88;4944314;28;45483;-73
2021/07/30 08:54:08;;;;;;;;;4.00;2.00;;;;;27.49;40.34;100676.00;4940462;28;45441;-74
2021/07/30 08:56:37;;;;;;;;;2.00;2.00;;;;;27.52;40.52;100661.41;4940970;28;45480;-73
2021/07/30 08:59:03;;;;;;;;;3.00;3.00;;;;;27.58;40.62;100671.19;4954638;28;45429;-73
2021/07/30 09:01:28;;;;;;;;;3.33;3.33;;;;;27.67;40.58;100681.56;4948933;28;45588;-73
2021/07/30 09:03:54;;;;;;;;;2.00;2.00;;;;;27.64;40.05;100677.50;4944277;28;45873;-74
2021/07/30 09:06:21;;;;;;;;;2.67;2.67;;;;;27.77;39.85;100691.72;4941426;28;45453;-73
2021/07/30 09:08:55;;;;;;;;;2.00;2.00;;;;;27.80;40.06;100688.66;4939809;28;45673;-73
2021/07/30 09:11:54;;;;;;;;;3.00;2.00;;;;;27.83;39.81;100693.56;4940572;28;45520;-73
2021/07/30 09:14:35;;;;;;;;;3.50;2.00;;;;;27.87;40.35;100683.25;4939998;28;45506;-73
2021/07/30 09:17:01;;;;;;;;;1.33;1.33;;;;;27.85;39.92;100678.94;4952250;28;45553;-73
2021/07/30 09:19:27;;;;;;;;;2.00;2.00;;;;;27.90;39.62;100686.28;4952736;28;45942;-72
2021/07/30 09:22:09;;;;;;;;;2.50;2.50;;;;;27.94;40.08;100681.31;4953167;28;45576;-73
2021/07/30 09:24:40;;;;;;;;;4.50;3.50;;;;;27.82;40.02;100659.84;4944225;28;45596;-74
2021/07/30 09:27:16;;;;;;;;;1.25;1.25;;;;;27.93;40.10;100683.16;4940114;28;45621;-73
2021/07/30 09:29:41;;;;;;;;;3.75;2.75;;;;;28.00;39.52;100688.41;4952771;28;46314;-74
2021/07/30 09:32:16;;;;;;;;;1.50;1.50;;;;;28.06;39.98;100695.53;4956295;28;45457;-73
2021/07/30 09:34:51;;;;;;;;;2.00;2.00;;;;;28.01;39.46;100673.19;4955944;28;45557;-74
2021/07/30 09:37:27;;;;;;;;;4.50;3.25;;;;;28.13;39.93;100690.09;4950931;28;45401;-73
2021/07/30 09:39:53;;;;;;;;;2.50;2.50;;;;;28.15;39.22;100682.69;4946131;28;47150;-73
2021/07/30 09:42:28;;;;;;;;;2.25;2.00;;;;;28.17;39.79;100693.97;4955216;28;45418;-73
2021/07/30 09:44:57;;;;;;;;;2.00;2.00;;;;;28.18;39.69;100686.75;4955898;28;45378;-74
2021/07/30 09:47:24;;;;;;;;;2.50;2.50;;;;;28.19;39.21;100688.38;4956353;28;45508;-74
2021/07/30 09:50:03;;;;;;;;;3.00;2.00;;;;;28.18;38.99;100694.78;4947395;28;47014;-73
2021/07/30 09:52:32;;;;;;;;;2.25;2.00;;;;;28.22;39.11;100697.81;4946773;28;45296;-73
2021/07/30 09:55:01;;;;;;;;;2.00;2.00;;;;;28.25;38.97;100694.69;4946868;28;45366;-74
2021/07/30 09:57:32;;;;;;;;;5.00;2.00;;;;;28.17;39.01;100664.53;4944740;28;45279;-74
2021/07/30 10:00:05;;;;;;;;;2.33;2.33;;;;;28.25;39.13;100676.78;4941929;28;46496;-74
2021/07/30 10:02:32;;;;;;;;;1.50;1.00;;;;;28.23;38.95;100683.41;4943865;28;45312;-73
2021/07/30 10:04:58;;;;;;;;;2.00;2.00;;;;;28.29;39.43;100702.03;4946674;28;45358;-73
2021/07/30 10:07:26;;;;;;;;;2.00;2.00;;;;;28.28;38.82;100689.72;4946892;28;45448;-73
2021/07/30 10:10:04;;;;;;;;;3.00;2.00;;;;;28.29;39.34;100699.34;4947854;28;45318;-73
2021/07/30 10:12:31;;;;;;;;;1.75;1.75;;;;;28.22;38.92;100689.78;4957220;28;45352;-73
2021/07/30 10:15:01;;;;;;;;;3.33;2.00;;;;;28.26;38.83;100696.34;4941977;28;45386;-73
2021/07/30 10:17:28;;;;;;;;;2.00;2.00;;;;;28.26;39.01;100689.09;4958184;28;45474;-74
2021/07/30 10:19:54;;;;;;;;;1.50;1.50;;;;;28.26;39.38;100701.69;4947613;28;46981;-74
2021/07/30 10:22:22;;;;;;;;;3.50;2.25;;;;;28.23;39.52;100686.91;4946324;28;45497;-73
2021/07/30 10:24:51;;;;;;;;;1.67;1.33;;;;;28.20;38.69;100689.19;4946289;28;45529;-73
2021/07/30 10:27:20;;;;;;;;;3.00;3.00;;;;;28.22;38.77;100673.75;4943202;28;45385;-74
2021/07/30 10:30:03;;;;;;;;;1.67;1.67;;;;;28.26;39.31;100699.78;4957530;28;45391;-74
2021/07/30 10:32:44;;;;;;;;;3.25;3.00;;;;;28.26;39.35;100701.69;4943317;28;45328;-74
2021/07/30 10:35:10;;;;;;;;;3.00;3.00;;;;;28.26;38.90;100702.47;4945746;28;45604;-73
2021/07/30 10:37:37;;;;;;;;;3.25;2.50;;;;;28.23;38.94;100697.59;4961002;28;45534;-73
2021/07/30 10:40:16;;;;;;;;;3.00;2.00;;;;;28.24;39.28;100701.88;4945616;28;46080;-74
2021/07/30 10:43:07;;;;;;;;;2.00;2.00;;;;;28.24;39.17;100701.88;4946133;28;45464;-74
2021/07/30 10:45:40;;;;;;;;;2.00;2.00;;;;;28.25;38.75;100695.50;4944576;28;46184;-73
2021/07/30 10:48:11;;;;;;;;;1.00;1.00;;;;;28.26;39.33;100696.34;4941701;28;45508;-76
2021/07/30 10:50:48;;;;;;;;;4.50;1.75;;;;;28.26;38.81;100697.13;4953428;28;45378;-72
2021/07/30 10:53:54;;;;;;;;;3.00;1.33;;;;;28.26;39.35;100705.16;4942398;28;45381;-73
2021/07/30 10:56:20;;;;;;;;;6.00;3.00;;;;;28.25;39.05;100695.50;4922455;28;45776;-73
2021/07/30 10:58:54;;;;;;;;;2.25;2.00;;;;;28.25;39.35;100702.72;4924342;28;45518;-73
2021/07/30 11:01:20;;;;;;;;;3.00;2.33;;;;;28.23;38.54;100702.94;4923798;28;46564;-73
2021/07/30 11:03:48;;;;;;;;;2.00;1.25;;;;;28.24;38.54;100698.41;4929967;28;45493;-75
2021/07/30 11:06:17;;;;;;;;;2.00;2.00;;;;;28.15;38.24;100703.25;4933429;28;45522;-75
2021/07/30 11:11:49;;;;;;;;;4.67;2.33;;;;;28.09;37.77;100693.44;4934957;28;45363;-76
2021/07/30 11:14:30;;;;;;;;;3.00;2.00;;;;;27.97;36.89;100686.22;4933651;28;45520;-75
2021/07/30 11:16:55;;;;;;;;;4.33;1.33;;;;;28.00;36.89;100693.75;4932587;28;45777;-74
2021/07/30 11:19:25;;;;;;;;;1.00;1.00;;;;;27.93;37.03;100695.69;4933335;28;45871;-74
2021/07/30 11:21:52;;;;;;;;;1.00;1.00;;;;;27.92;36.59;100699.44;4932862;28;46176;-74
2021/07/30 11:24:18;;;;;;;;;2.67;2.00;;;;;27.88;36.21;100691.03;4931582;28;45528;-74
2021/07/30 11:26:44;;;;;;;;;1.33;1.00;;;;;27.88;36.70;100698.22;4933292;28;45387;-74
2021/07/30 11:29:14;;;;;;;;;2.00;0.00;;;;;27.83;35.85;100696.22;4933965;28;45611;-74